Time;durP1;ratioP1;P1;durP2;ratioP2;P2;SDS_P1;SDS_P2;PMS_P1;PMS_P2;Temp;Humidity;BMP_temperature;BMP_pressure;BME280_temperature;BME280_humidity;BME280_pressure;Samples;Min_cycle;Max_cycle;Signal;HPM_P1;HPM_P2
2023/05/20 00:01:03;;;;;;;1.63;1.02;;;15.20;90.10;;;15.52;75.02;101545.16;5137513;28;20472;-67
2023/05/20 00:03:37;;;;;;;1.48;1.02;;;15.20;90.00;;;15.50;75.46;101541.63;5142326;28;20043;-70
2023/05/20 00:06:09;;;;;;;1.02;0.93;;;15.20;90.30;;;15.47;75.18;101543.31;5143378;28;20555;-68
2023/05/20 00:08:41;;;;;;;1.63;1.10;;;15.20;90.20;;;15.44;75.26;101540.59;5142158;28;20054;-68
2023/05/20 00:11:13;;;;;;;2.05;1.23;;;15.10;90.30;;;15.42;75.54;101542.31;5142333;28;20069;-68
2023/05/20 00:13:45;;;;;;;1.50;1.02;;;15.10;90.50;;;15.42;75.04;101534.41;5139432;28;20504;-67
2023/05/20 00:16:17;;;;;;;2.08;1.17;;;15.10;90.40;;;15.42;75.47;101526.53;5140246;28;20050;-68
2023/05/20 00:18:51;;;;;;;1.98;1.10;;;15.10;90.50;;;15.40;75.63;101530.00;5132008;28;20044;-69
2023/05/20 00:21:23;;;;;;;1.33;0.90;;;15.10;90.80;;;15.37;76.03;101536.03;5136302;28;20499;-68
2023/05/20 00:23:55;;;;;;;2.92;1.17;;;15.10;91.10;;;15.32;76.33;101542.94;5142800;28;20534;-68
2023/05/20 00:26:29;;;;;;;1.75;1.10;;;15.00;91.20;;;15.28;76.39;101541.06;5142578;28;20102;-67
2023/05/20 00:29:02;;;;;;;1.20;1.10;;;15.00;91.40;;;15.21;77.13;101533.84;5142579;28;20045;-68
2023/05/20 00:31:35;;;;;;;1.55;1.10;;;14.90;91.90;;;15.14;77.83;101532.78;5125328;28;20109;-68
2023/05/20 00:34:08;;;;;;;1.50;1.02;;;14.80;92.20;;;15.08;78.32;101523.84;5125279;28;20547;-68
2023/05/20 00:36:41;;;;;;;2.45;1.00;;;14.80;92.80;;;15.03;79.04;101528.09;5125216;28;20042;-68
2023/05/20 00:39:13;;;;;;;1.67;1.05;;;14.70;93.20;;;14.98;79.76;101527.06;5125180;28;20117;-68
2023/05/20 00:41:46;;;;;;;1.38;0.98;;;14.70;93.90;;;14.92;80.54;101531.28;5125168;28;20058;-68
2023/05/20 00:44:18;;;;;;;1.00;0.88;;;14.60;94.40;;;14.84;81.03;101522.28;5150485;28;20050;-68
2023/05/20 00:46:50;;;;;;;1.08;0.98;;;14.60;94.90;;;14.78;80.88;101519.50;5132821;28;20047;-67
2023/05/20 00:49:24;;;;;;;1.40;0.80;;;14.50;95.20;;;14.72;81.45;101521.06;5125404;28;20054;-67
2023/05/20 00:51:56;;;;;;;1.73;0.93;;;14.40;95.70;;;14.66;82.38;101521.75;5144127;28;20047;-67
2023/05/20 00:54:28;;;;;;;1.13;1.02;;;14.30;96.30;;;14.57;82.73;101508.38;5125471;28;20491;-68
2023/05/20 00:57:01;;;;;;;1.55;1.00;;;14.30;96.80;;;14.51;83.11;101511.69;5129004;28;20451;-68
2023/05/20 00:59:34;;;;;;;1.40;1.10;;;14.20;97.30;;;14.44;83.74;101511.44;5127562;28;20128;-68
2023/05/20 01:02:07;;;;;;;1.63;1.00;;;14.20;97.90;;;14.38;84.41;101509.50;5128380;28;20051;-67
2023/05/20 01:04:45;;;;;;;1.65;1.55;;;14.10;98.40;;;14.33;85.04;101506.75;5131014;28;20044;-68
2023/05/20 01:07:19;;;;;;;2.08;1.00;;;14.00;99.10;;;14.26;85.46;101506.50;5132174;28;20081;-66
2023/05/20 01:09:53;;;;;;;1.70;0.98;;;14.00;99.60;;;14.19;86.19;101512.41;5137903;28;20066;-67
2023/05/20 01:12:29;;;;;;;1.40;1.02;;;13.90;99.90;;;14.12;86.43;101511.31;5127693;28;20069;-69
2023/05/20 01:15:09;;;;;;;1.73;1.20;;;13.90;99.90;;;14.06;87.36;101517.25;5127897;28;20047;-68
2023/05/20 01:17:46;;;;;;;1.10;1.00;;;13.80;99.90;;;13.98;87.82;101507.38;5125008;28;20043;-69
2023/05/20 01:20:21;;;;;;;2.30;0.98;;;13.70;99.90;;;13.91;88.41;101510.66;5140958;28;20492;-67
2023/05/20 01:22:56;;;;;;;1.98;1.20;;;13.70;99.90;;;13.85;89.13;101506.09;5134722;28;20050;-68
2023/05/20 01:25:29;;;;;;;1.40;1.02;;;13.60;99.90;;;13.81;89.59;101502.47;5145438;28;20121;-68
2023/05/20 01:28:01;;;;;;;1.60;1.00;;;13.50;99.90;;;13.79;89.94;101505.88;5127567;28;20559;-68
2023/05/20 01:30:44;;;;;;;1.25;0.95;;;13.60;99.90;;;13.76;90.17;101503.19;5152679;28;20535;-68
2023/05/20 01:33:22;;;;;;;1.58;1.20;;;13.50;99.90;;;13.74;90.66;101510.97;5144470;28;20530;-69
2023/05/20 01:35:55;;;;;;;1.42;1.08;;;13.50;99.90;;;13.67;91.14;101493.25;5127534;28;20520;-68
2023/05/20 01:38:29;;;;;;;1.90;1.23;;;13.40;99.90;;;13.61;90.96;101497.41;5127217;28;20051;-68
2023/05/20 01:41:04;;;;;;;1.33;1.10;;;13.30;99.90;;;13.52;91.63;101500.63;5145038;28;20046;-69
2023/05/20 01:43:39;;;;;;;1.38;1.00;;;13.30;99.90;;;13.46;92.34;101497.78;5127005;28;20047;-68
2023/05/20 01:46:11;;;;;;;1.58;1.15;;;13.20;99.90;;;13.41;92.55;101491.50;5127427;28;20105;-68
2023/05/20 01:48:43;;;;;;;1.95;1.13;;;13.20;99.90;;;13.34;92.83;101495.63;5126553;28;20065;-69
2023/05/20 01:51:16;;;;;;;2.65;1.20;;;13.10;99.90;;;13.28;93.18;101496.31;5127587;28;20158;-68
2023/05/20 01:53:50;;;;;;;2.00;1.13;;;13.00;99.90;;;13.24;93.81;101494.44;5127130;28;20049;-68
2023/05/20 01:56:22;;;;;;;2.42;1.13;;;13.00;99.90;;;13.22;94.06;101493.47;5144688;28;20053;-67
2023/05/20 01:58:54;;;;;;;2.05;1.20;;;13.00;99.90;;;13.19;94.36;101488.09;5126827;28;20566;-68
2023/05/20 02:01:27;;;;;;;2.45;1.20;;;13.00;99.90;;;13.18;94.84;101488.06;5126692;28;20051;-67
2023/05/20 02:03:59;;;;;;;2.10;1.20;;;12.90;99.90;;;13.17;95.33;101487.19;5126807;28;20578;-69
2023/05/20 02:06:31;;;;;;;1.58;1.20;;;12.90;99.90;;;13.13;95.30;101485.28;5143861;28;20122;-68
2023/05/20 02:09:05;;;;;;;1.65;1.20;;;12.90;99.90;;;13.10;95.69;101484.25;5126633;28;20138;-68
2023/05/20 02:11:38;;;;;;;1.23;1.13;;;12.90;99.90;;;13.07;95.74;101490.28;5126530;28;20134;-68
2023/05/20 02:14:12;;;;;;;1.20;1.08;;;12.80;99.90;;;13.05;95.85;101484.13;5134701;28;20051;-68
2023/05/20 02:16:44;;;;;;;1.75;1.50;;;12.80;99.90;;;12.99;96.43;101481.28;5143842;28;20038;-68
2023/05/20 02:19:22;;;;;;;1.40;1.23;;;12.80;99.90;;;12.94;96.50;101477.59;5126576;28;20058;-68
2023/05/20 02:21:54;;;;;;;2.45;1.40;;;12.70;99.90;;;12.89;97.02;101473.91;5119134;28;20328;-67
2023/05/20 02:24:27;;;;;;;1.65;1.23;;;12.70;99.90;;;12.85;97.34;101469.44;5126152;28;20042;-69
2023/05/20 02:27:02;;;;;;;2.33;1.27;;;12.60;99.90;;;12.79;97.77;101471.81;5127084;28;20046;-68
2023/05/20 02:29:34;;;;;;;1.65;1.30;;;12.60;99.90;;;12.74;97.47;101464.69;5151207;28;20046;-68
2023/05/20 02:32:07;;;;;;;2.47;1.30;;;12.50;99.90;;;12.69;97.69;101475.81;5126569;28;20488;-68
2023/05/20 02:34:39;;;;;;;2.78;1.55;;;12.50;99.90;;;12.64;98.06;101478.25;5126200;28;20090;-69
2023/05/20 02:37:12;;;;;;;3.30;1.30;;;12.40;99.90;;;12.63;98.36;101479.09;5126568;28;20503;-67
2023/05/20 02:39:45;;;;;;;1.88;1.30;;;12.40;99.90;;;12.66;98.13;101475.72;5143269;28;20046;-68
2023/05/20 02:42:19;;;;;;;3.03;1.40;;;12.40;99.90;;;12.64;98.47;101473.00;5126395;28;20411;-68
2023/05/20 02:44:55;;;;;;;3.08;1.33;;;12.40;99.90;;;12.59;98.24;101473.72;5142730;28;20031;-67
2023/05/20 02:47:27;;;;;;;2.38;1.40;;;12.40;99.90;;;12.53;98.03;101469.13;5126271;28;20062;-68
2023/05/20 02:49:59;;;;;;;2.55;1.33;;;12.30;99.90;;;12.48;98.30;101470.69;5125915;28;20049;-67
2023/05/20 02:52:32;;;;;;;2.15;1.30;;;12.30;99.90;;;12.45;99.05;101470.53;5133612;28;20050;-67
2023/05/20 02:55:07;;;;;;;1.65;1.38;;;12.20;99.90;;;12.41;99.38;101466.94;5125285;28;20031;-67
2023/05/20 02:57:39;;;;;;;;;;;12.20;99.90;;;12.41;99.38;101474.78;5133549;28;20052;-67
2023/05/20 03:00:15;;;;;;;1.90;1.20;;;12.20;99.90;;;12.39;99.27;101475.56;5125045;28;20012;-69
2023/05/20 03:02:48;;;;;;;1.60;1.30;;;12.20;99.90;;;12.33;98.82;101468.38;5142699;28;20071;-67
2023/05/20 03:05:20;;;;;;;1.45;1.27;;;12.10;99.90;;;12.29;99.30;101473.41;5125298;28;20615;-66
2023/05/20 03:07:52;;;;;;;1.50;1.38;;;12.10;99.90;;;12.26;99.75;101468.97;5125215;28;20054;-68
2023/05/20 03:10:26;;;;;;;1.90;1.23;;;12.10;99.90;;;12.25;99.83;101466.28;5142357;28;20050;-67
2023/05/20 03:12:58;;;;;;;2.03;1.42;;;12.00;99.90;;;12.21;99.77;101460.94;5125909;28;20708;-67
2023/05/20 03:15:30;;;;;;;2.25;1.45;;;12.00;99.90;;;12.21;99.81;101460.94;5124984;28;20050;-68
2023/05/20 03:18:04;;;;;;;3.70;1.48;;;12.00;99.90;;;12.21;100.00;101458.34;5125481;28;20416;-68
2023/05/20 03:20:37;;;;;;;2.45;1.52;;;12.00;99.90;;;12.22;99.95;101461.84;5141998;28;20045;-68
2023/05/20 03:23:09;;;;;;;1.50;1.15;;;12.00;99.90;;;12.22;99.86;101461.84;5125310;28;20420;-68
2023/05/20 03:25:43;;;;;;;2.65;1.70;;;12.00;99.90;;;12.20;99.92;101469.63;5124843;28;20138;-69
2023/05/20 03:28:16;;;;;;;1.50;1.33;;;12.00;99.90;;;12.16;99.57;101461.59;5124276;28;20043;-67
2023/05/20 03:30:49;;;;;;;2.92;1.40;;;12.00;99.90;;;12.14;99.68;101468.50;5142184;28;20101;-68
2023/05/20 03:33:26;;;;;;;2.25;1.55;;;12.00;99.90;;;12.11;99.67;101469.25;5125336;28;20085;-68
2023/05/20 03:35:59;;;;;;;1.90;1.38;;;12.00;99.90;;;12.08;100.00;101463.03;5129861;28;20074;-68
2023/05/20 03:38:32;;;;;;;2.08;1.55;;;11.90;99.90;;;12.06;100.00;101459.44;5145858;28;20038;-66
2023/05/20 03:41:06;;;;;;;1.75;1.30;;;11.90;99.90;;;12.04;100.00;101455.88;5132212;28;20042;-69
2023/05/20 03:43:40;;;;;;;2.25;1.50;;;11.90;99.90;;;12.03;100.00;101464.56;5132661;28;20077;-67
2023/05/20 03:46:12;;;;;;;2.03;1.23;;;11.90;99.90;;;12.01;100.00;101469.75;5150189;28;20038;-68
2023/05/20 03:48:44;;;;;;;1.90;1.42;;;11.90;99.90;;;11.99;100.00;101465.25;5124270;28;20049;-67
2023/05/20 03:51:16;;;;;;;2.65;1.67;;;11.80;99.90;;;11.97;100.00;101459.97;5125459;28;20057;-67
2023/05/20 03:53:51;;;;;;;1.52;1.40;;;11.80;99.90;;;11.95;100.00;101466.88;5135794;28;20042;-68
2023/05/20 03:56:25;;;;;;;1.52;1.42;;;11.80;99.90;;;11.94;100.00;101471.22;5147056;28;20047;-69
2023/05/20 03:58:57;;;;;;;2.38;1.58;;;11.80;99.90;;;11.93;100.00;101468.50;5117172;28;20066;-68
2023/05/20 04:01:30;;;;;;;2.97;1.52;;;11.80;99.90;;;11.93;100.00;101472.06;5142149;28;20094;-68
2023/05/20 04:04:03;;;;;;;2.50;1.83;;;11.80;99.90;;;11.92;100.00;101462.41;5124814;28;20400;-68
2023/05/20 04:06:35;;;;;;;1.73;1.55;;;11.70;99.90;;;11.93;100.00;101469.44;5133843;28;20404;-68
2023/05/20 04:09:08;;;;;;;3.10;1.33;;;11.70;99.90;;;11.93;100.00;101464.22;5130926;28;20065;-69
2023/05/20 04:11:41;;;;;;;2.28;1.58;;;11.80;99.90;;;11.93;100.00;101466.81;5132762;28;20557;-67
2023/05/20 04:14:14;;;;;;;2.35;1.45;;;11.70;99.90;;;11.93;100.00;101463.28;5142139;28;20050;-67
2023/05/20 04:16:47;;;;;;;2.65;1.50;;;11.70;99.90;;;11.94;100.00;101466.00;5124517;28;20058;-68
2023/05/20 04:19:20;;;;;;;2.30;1.83;;;11.70;99.90;;;11.98;100.00;101466.97;5124095;28;20046;-69
2023/05/20 04:21:52;;;;;;;1.85;1.38;;;11.80;99.90;;;12.02;100.00;101468.00;5141733;28;20047;-67
2023/05/20 04:24:26;;;;;;;1.90;1.30;;;11.80;99.90;;;12.16;100.00;101467.72;5124350;28;20035;-68
2023/05/20 04:27:02;;;;;;;2.47;1.30;;;11.90;99.90;;;12.25;100.00;101466.28;5124540;28;20057;-68
2023/05/20 04:29:35;;;;;;;2.10;1.40;;;12.00;99.90;;;12.26;100.00;101466.38;5127410;28;20043;-67
2023/05/20 04:32:09;;;;;;;1.50;1.33;;;12.00;99.90;;;12.24;100.00;101460.16;5146154;28;20538;-68
2023/05/20 04:34:43;;;;;;;2.17;1.48;;;12.10;99.90;;;12.22;100.00;101460.13;5136249;28;20051;-68
2023/05/20 04:37:16;;;;;;;1.92;1.35;;;12.10;99.90;;;12.23;100.00;101469.72;5128952;28;20055;-67
2023/05/20 04:39:49;;;;;;;2.90;1.52;;;12.00;99.90;;;12.23;100.00;101469.72;5127708;28;20074;-68
2023/05/20 04:42:24;;;;;;;2.28;1.50;;;12.10;99.90;;;12.26;100.00;101468.97;5145724;28;20093;-67
2023/05/20 04:44:57;;;;;;;1.98;1.40;;;12.10;99.90;;;12.28;100.00;101469.91;5127879;28;20412;-67
2023/05/20 04:47:29;;;;;;;2.90;1.70;;;12.10;99.90;;;12.32;100.00;101474.41;5128152;28;20081;-69
2023/05/20 04:50:02;;;;;;;2.80;1.58;;;12.10;99.90;;;12.36;100.00;101468.47;5127750;28;20089;-68
2023/05/20 04:52:35;;;;;;;3.10;1.50;;;12.20;99.90;;;12.41;100.00;101473.91;5135894;28;20543;-67
2023/05/20 04:55:09;;;;;;;2.70;1.58;;;12.20;99.90;;;12.47;100.00;101475.03;5128159;28;20503;-67
2023/05/20 04:57:43;;;;;;;1.92;1.52;;;12.30;99.90;;;12.56;100.00;101473.56;5128109;28;20054;-67
2023/05/20 05:00:16;;;;;;;2.47;1.67;;;12.30;99.90;;;12.65;100.00;101469.59;5127354;28;20129;-68
2023/05/20 05:02:48;;;;;;;1.85;1.50;;;12.40;99.90;;;12.73;100.00;101457.69;5127838;28;20451;-68
2023/05/20 05:05:22;;;;;;;2.55;1.42;;;12.50;99.90;;;12.82;100.00;101453.59;5127693;28;20054;-68
2023/05/20 05:07:54;;;;;;;1.90;1.50;;;12.60;99.90;;;12.89;100.00;101463.44;5127663;28;20053;-70
2023/05/20 05:10:26;;;;;;;1.48;1.20;;;12.60;99.90;;;13.00;100.00;101462.13;5145000;28;20038;-68
2023/05/20 05:13:01;;;;;;;2.65;1.40;;;12.70;99.90;;;13.11;100.00;101465.13;5127377;28;20045;-68
2023/05/20 05:15:33;;;;;;;3.00;1.80;;;12.80;99.90;;;13.19;100.00;101461.94;5127728;28;20031;-68
2023/05/20 05:18:08;;;;;;;2.08;1.38;;;12.90;99.90;;;13.29;100.00;101461.44;5134371;28;20043;-68
2023/05/20 05:20:42;;;;;;;2.75;1.55;;;13.00;99.90;;;13.41;100.00;101465.31;5127027;28;20093;-68
2023/05/20 05:23:14;;;;;;;2.90;1.42;;;13.10;99.90;;;13.53;100.00;101450.00;5144924;28;20057;-68
2023/05/20 05:25:52;;;;;;;2.83;1.48;;;13.30;99.90;;;13.67;100.00;101458.31;5144514;28;20128;-68
2023/05/20 05:28:26;;;;;;;3.03;1.67;;;13.30;99.90;;;13.77;100.00;101453.44;5133977;28;20440;-68
2023/05/20 05:30:58;;;;;;;2.95;1.50;;;13.50;99.90;;;13.87;100.00;101451.09;5127650;28;20053;-68
2023/05/20 05:33:31;;;;;;;2.75;1.42;;;13.50;99.90;;;13.95;100.00;101429.50;5127098;28;20047;-68
2023/05/20 05:36:05;;;;;;;3.17;1.40;;;13.70;99.90;;;14.06;100.00;101437.72;5149086;28;20045;-68
2023/05/20 05:38:37;;;;;;;2.83;1.35;;;13.70;99.90;;;14.13;100.00;101435.34;5146713;28;20389;-70
2023/05/20 05:41:10;;;;;;;2.45;1.58;;;13.80;99.90;;;14.22;100.00;101434.75;5126347;28;20047;-68
2023/05/20 05:43:44;;;;;;;2.75;1.30;;;13.90;99.90;;;14.30;99.89;101437.59;5126681;28;20069;-68
2023/05/20 05:46:17;;;;;;;2.20;1.45;;;14.00;99.90;;;14.34;99.83;101435.13;5127079;28;20129;-68
2023/05/20 05:48:49;;;;;;;2.75;1.40;;;14.00;99.90;;;14.42;98.70;101439.69;5128370;28;20055;-68
2023/05/20 05:51:24;;;;;;;2.33;1.50;;;14.10;99.90;;;14.48;98.37;101430.31;5141156;28;20066;-68
2023/05/20 05:53:57;;;;;;;1.70;1.20;;;14.20;99.90;;;14.54;97.64;101437.44;5126687;28;20134;-68
2023/05/20 05:56:29;;;;;;;2.85;1.63;;;14.20;99.90;;;14.58;96.90;101428.81;5127030;28;20043;-69
2023/05/20 05:59:04;;;;;;;2.58;1.33;;;14.30;99.90;;;14.64;96.66;101423.75;5159710;23;20442;-68
2023/05/20 06:01:37;;;;;;;1.88;1.52;;;14.30;99.90;;;14.75;96.48;101432.81;5204460;28;20129;-68
2023/05/20 06:04:09;;;;;;;1.98;1.40;;;14.40;99.90;;;14.83;95.85;101426.03;5196373;28;20092;-59
2023/05/20 06:06:42;;;;;;;2.25;1.40;;;14.50;99.90;;;14.95;95.77;101429.84;5173910;28;20049;-59
2023/05/20 06:09:14;;;;;;;2.80;1.63;;;14.60;99.90;;;15.08;95.41;101426.69;5173957;28;20124;-56
2023/05/20 06:11:46;;;;;;;2.05;1.50;;;14.70;99.90;;;15.21;94.30;101423.53;5187489;28;20061;-55
2023/05/20 06:14:20;;;;;;;2.33;1.60;;;14.80;99.90;;;15.39;93.29;101431.91;5204279;28;20140;-56
2023/05/20 06:16:53;;;;;;;3.63;1.77;;;14.90;99.90;;;15.60;92.39;101418.41;5176482;28;20046;-55
2023/05/20 06:19:25;;;;;;;4.57;2.00;;;15.10;99.90;;;15.82;91.71;101425.06;5187167;28;20092;-55
2023/05/20 06:21:58;;;;;;;3.83;2.03;;;15.30;99.90;;;16.04;91.14;101426.47;5170350;28;20045;-54
2023/05/20 06:24:30;;;;;;;2.67;2.00;;;15.50;99.90;;;16.19;90.42;101423.28;5205419;28;20041;-55
2023/05/20 06:27:02;;;;;;;2.22;1.80;;;15.70;99.90;;;16.32;89.17;101421.81;5183303;28;20509;-55
2023/05/20 06:29:36;;;;;;;4.47;1.90;;;15.80;99.90;;;16.40;87.84;101426.38;5175477;28;20046;-55
2023/05/20 06:32:09;;;;;;;3.15;2.47;;;15.90;99.90;;;16.38;86.46;101420.19;5187379;28;20067;-55
2023/05/20 06:34:42;;;;;;;2.92;1.50;;;15.90;99.90;;;16.38;86.80;101427.19;5187092;28;20549;-56
2023/05/20 06:37:14;;;;;;;3.45;1.83;;;15.90;99.90;;;16.40;87.34;101420.22;5204953;28;20048;-57
2023/05/20 06:39:50;;;;;;;2.05;1.48;;;15.90;99.90;;;16.42;86.76;101424.66;5204890;28;20641;-56
2023/05/20 06:42:22;;;;;;;2.63;1.58;;;16.00;99.90;;;16.44;86.27;101416.81;5180340;28;20084;-56
2023/05/20 06:45:10;;;;;;;3.25;2.42;;;16.00;99.90;;;16.47;85.99;101417.75;5166766;28;20141;-57
2023/05/20 06:47:48;;;;;;;3.10;1.88;;;16.00;99.90;;;16.44;85.19;101412.44;5183034;28;20046;-56
2023/05/20 06:50:21;;;;;;;3.47;1.80;;;16.00;99.90;;;16.46;84.92;101409.81;5190668;28;20130;-55
2023/05/20 06:52:53;;;;;;;2.13;1.35;;;16.10;99.90;;;16.50;85.31;101412.56;5168709;28;20421;-55
2023/05/20 06:55:26;;;;;;;2.42;1.63;;;16.10;99.90;;;16.53;85.24;101411.72;5188113;28;20052;-57
2023/05/20 06:57:59;;;;;;;2.30;1.63;;;16.10;99.90;;;16.60;85.01;101410.97;5174570;28;20045;-56
2023/05/20 07:00:34;;;;;;;2.25;1.75;;;16.20;99.90;;;16.69;85.25;101416.44;5172012;28;20042;-56
2023/05/20 07:03:06;;;;;;;4.28;2.10;;;16.30;99.90;;;16.77;84.74;101411.34;5184028;28;20049;-56
2023/05/20 07:05:38;;;;;;;2.70;1.55;;;16.30;99.90;;;16.93;84.79;101405.50;5193231;28;20549;-55
2023/05/20 07:08:11;;;;;;;2.30;1.58;;;16.40;99.90;;;17.16;84.40;101399.78;5186805;28;20091;-54
2023/05/20 07:10:45;;;;;;;2.67;1.52;;;16.60;99.90;;;17.38;83.79;101406.28;5186560;28;20120;-54
2023/05/20 07:13:18;;;;;;;3.22;1.70;;;16.80;99.90;;;17.57;82.16;101393.44;5186715;28;20055;-57
2023/05/20 07:15:52;;;;;;;4.32;2.10;;;17.00;99.90;;;17.77;81.34;101396.41;5204338;28;20034;-54
2023/05/20 07:18:25;;;;;;;2.90;1.88;;;17.20;99.90;;;17.94;80.18;101393.16;5186632;28;20048;-57
2023/05/20 07:20:59;;;;;;;3.63;1.92;;;17.30;99.50;;;18.06;79.17;101388.94;5186594;28;20513;-55
2023/05/20 07:23:57;;;;;;;3.47;1.83;;;17.40;99.00;;;18.15;78.09;101385.53;5170028;28;20529;-57
2023/05/20 07:26:32;;;;;;;4.03;2.10;;;17.50;98.30;;;18.28;77.86;101386.56;5170386;28;20038;-57
2023/05/20 07:29:05;;;;;;;2.63;1.80;;;17.70;98.20;;;18.37;76.78;101386.66;5173760;28;20060;-61
2023/05/20 07:31:39;;;;;;;3.55;1.80;;;17.80;97.50;;;18.57;77.28;101384.25;5173759;28;20040;-58
2023/05/20 07:34:11;;;;;;;3.92;1.73;;;17.90;97.60;;;18.74;77.17;101374.81;5175348;28;20502;-59
2023/05/20 07:36:43;;;;;;;2.70;1.95;;;18.10;97.50;;;18.93;76.70;101384.69;5182117;28;20506;-59
2023/05/20 07:39:15;;;;;;;3.20;1.50;;;18.20;97.40;;;19.05;75.43;101386.56;5173667;28;20096;-58
2023/05/20 07:41:48;;;;;;;3.88;1.83;;;18.30;96.70;;;19.09;75.42;101385.72;5173475;28;20050;-59
2023/05/20 07:44:22;;;;;;;4.35;2.08;;;18.40;96.40;;;19.09;75.25;101388.34;5175100;28;20049;-59
2023/05/20 07:46:57;;;;;;;2.42;1.73;;;18.50;96.20;;;19.03;75.17;101388.28;5169173;28;20081;-59
2023/05/20 07:49:30;;;;;;;2.70;1.60;;;18.50;95.90;;;18.88;74.87;101374.94;5190095;28;20054;-59
2023/05/20 07:52:02;;;;;;;2.78;1.80;;;18.40;95.60;;;18.70;75.35;101378.28;5160847;28;20540;-59
2023/05/20 07:54:35;;;;;;;2.88;1.88;;;18.30;95.60;;;18.63;75.96;101376.41;5197939;28;20046;-59
2023/05/20 07:57:08;;;;;;;4.85;1.90;;;18.20;95.80;;;18.59;76.51;101372.88;5165253;28;20129;-58
2023/05/20 07:59:40;;;;;;;7.30;2.80;;;18.10;96.00;;;18.65;76.78;101367.66;5182984;28;20038;-58
2023/05/20 08:02:14;;;;;;;6.25;2.40;;;18.20;96.30;;;18.75;76.70;101365.13;5184637;28;20120;-58
2023/05/20 08:04:47;;;;;;;3.10;1.92;;;18.20;96.30;;;18.84;76.00;101363.44;5165644;28;20376;-58
2023/05/20 08:07:19;;;;;;;2.85;1.92;;;18.30;96.00;;;18.87;75.89;101362.63;5176392;28;20045;-57
2023/05/20 08:09:58;;;;;;;3.22;1.80;;;18.30;95.90;;;18.96;76.44;101365.34;5166492;28;20053;-58
2023/05/20 08:12:32;;;;;;;2.72;1.65;;;18.40;96.10;;;19.03;75.55;101367.16;5159335;28;20046;-60
2023/05/20 08:15:07;;;;;;;4.10;1.75;;;18.50;95.70;;;19.22;75.51;101360.28;5169078;28;20133;-60
2023/05/20 08:17:41;;;;;;;2.58;1.63;;;18.60;95.80;;;19.37;74.43;101357.78;5166418;28;20057;-60
2023/05/20 08:20:14;;;;;;;2.40;1.73;;;18.70;95.20;;;19.37;72.66;101351.63;5185763;28;20133;-61
2023/05/20 08:22:46;;;;;;;3.30;2.00;;;18.70;94.10;;;19.38;73.30;101351.63;5167937;28;20092;-61
2023/05/20 08:25:18;;;;;;;3.78;1.73;;;18.80;94.30;;;19.48;73.75;101360.50;5169545;28;20125;-61
2023/05/20 08:27:51;;;;;;;3.00;1.70;;;18.90;94.50;;;19.59;74.41;101364.13;5178951;28;20119;-61
2023/05/20 08:30:24;;;;;;;2.35;1.50;;;19.00;94.90;;;19.64;72.74;101362.41;5177024;28;20048;-60
2023/05/20 08:32:58;;;;;;;3.85;1.80;;;19.00;94.00;;;19.68;72.52;101364.19;5183041;28;20050;-59
2023/05/20 08:35:32;;;;;;;3.67;2.00;;;19.10;93.80;;;19.79;72.19;101359.84;5182952;28;20411;-59
2023/05/20 08:38:04;;;;;;;2.88;1.73;;;19.10;93.60;;;19.89;72.29;101349.34;5176606;28;20045;-60
2023/05/20 08:40:36;;;;;;;1.90;1.63;;;19.20;93.60;;;19.96;71.99;101351.16;5174864;28;20533;-60
2023/05/20 08:43:08;;;;;;;2.83;1.80;;;19.30;93.30;;;20.17;71.90;101348.59;5181601;28;20498;-62
2023/05/20 08:45:40;;;;;;;3.33;1.85;;;19.40;93.40;;;20.37;71.38;101350.44;5162769;28;20053;-61
2023/05/20 08:48:19;;;;;;;4.07;1.98;;;19.60;93.20;;;20.29;70.67;101345.09;5149907;28;20124;-60
2023/05/20 08:50:53;;;;;;;3.20;1.83;;;19.60;92.50;;;20.27;70.77;101344.19;5177194;28;20046;-60
2023/05/20 08:53:26;;;;;;;2.92;1.95;;;19.60;92.40;;;20.20;70.52;101342.41;5178405;28;20403;-61
2023/05/20 08:56:01;;;;;;;3.60;1.90;;;19.60;92.10;;;20.27;71.05;101345.06;5169917;28;20116;-62
2023/05/20 08:58:34;;;;;;;3.90;1.85;;;19.60;92.30;;;20.38;71.15;101353.06;5185425;28;20051;-62
2023/05/20 09:01:07;;;;;;;3.17;1.70;;;19.70;92.40;;;20.64;71.03;101337.28;5185987;28;20077;-62
2023/05/20 09:03:40;;;;;;;3.17;1.88;;;19.90;92.50;;;20.82;69.57;101339.09;5175168;28;20045;-61
2023/05/20 09:06:18;;;;;;;4.30;2.03;;;20.00;91.80;;;21.34;69.32;101334.72;5154978;28;20050;-60
2023/05/20 09:08:51;;;;;;;5.03;1.90;;;20.30;91.90;;;21.62;68.10;101327.59;5181896;28;20056;-61
2023/05/20 09:11:23;;;;;;;3.03;1.73;;;20.60;91.30;;;21.88;67.48;101332.81;5179810;28;20046;-61
2023/05/20 09:13:55;;;;;;;2.80;1.70;;;20.80;90.90;;;22.07;66.82;101327.47;5185405;28;20124;-60
2023/05/20 09:16:27;;;;;;;3.90;1.73;;;21.00;90.40;;;22.17;66.47;101330.13;5169780;28;20137;-59
2023/05/20 09:19:01;;;;;;;3.75;1.60;;;21.20;90.00;;;22.15;65.17;101328.34;5175027;28;20145;-61
2023/05/20 09:21:35;;;;;;;3.05;1.70;;;21.20;87.80;;;22.19;65.02;101333.63;5177493;28;20072;-59
2023/05/20 09:24:07;;;;;;;2.58;1.73;;;21.20;87.30;;;22.40;65.27;101326.44;5169055;28;20045;-60
2023/05/20 09:26:39;;;;;;;2.10;1.70;;;21.40;87.50;;;22.59;65.08;101319.25;5169811;28;20538;-60
2023/05/20 09:29:11;;;;;;;2.00;1.60;;;21.60;87.20;;;22.67;63.64;101315.63;5176772;28;20054;-60
2023/05/20 09:31:43;;;;;;;2.90;1.67;;;21.70;85.70;;;22.59;63.21;101320.13;5185223;28;20408;-59
2023/05/20 09:34:17;;;;;;;1.83;1.52;;;21.70;83.80;;;22.59;63.91;101317.47;5169927;28;20049;-59
2023/05/20 09:36:51;;;;;;;4.13;1.92;;;21.70;84.30;;;22.56;62.29;101321.91;5176930;28;20042;-60
2023/05/20 09:39:33;;;;;;;2.75;1.70;;;21.70;82.00;;;22.85;63.11;101329.72;5176904;28;20434;-60
2023/05/20 09:42:16;;;;;;;2.95;1.70;;;21.90;83.00;;;23.04;62.87;101327.81;5169166;28;20093;-59
2023/05/20 09:44:50;;;;;;;3.10;1.90;;;22.10;82.30;;;22.75;61.48;101328.88;5185457;28;20430;-60
2023/05/20 09:47:24;;;;;;;3.13;1.70;;;22.00;80.10;;;22.20;62.23;101329.19;5190433;28;20041;-57
2023/05/20 09:49:58;;;;;;;2.55;2.00;;;21.60;80.10;;;21.85;63.20;101322.25;5185601;28;20528;-58
2023/05/20 09:52:30;;;;;;;1.80;1.50;;;21.40;80.60;;;21.63;64.16;101318.75;5174629;28;20047;-59
2023/05/20 09:55:04;;;;;;;2.95;1.90;;;21.10;81.60;;;21.60;64.96;101315.22;5172793;28;20053;-59
2023/05/20 09:57:38;;;;;;;2.72;2.00;;;21.10;82.60;;;21.62;65.41;101319.63;5178016;28;20065;-58
2023/05/20 10:00:12;;;;;;;2.65;1.65;;;21.00;83.20;;;21.67;65.50;101317.84;5162188;28;20069;-59
2023/05/20 10:02:47;;;;;;;3.78;2.17;;;21.00;83.40;;;21.73;65.08;101308.13;5173020;28;20054;-59
2023/05/20 10:05:23;;;;;;;3.95;2.00;;;21.10;83.10;;;21.80;65.58;101333.75;5163439;28;20128;-59
2023/05/20 10:08:26;;;;;;;3.08;2.10;;;21.10;83.70;;;21.55;65.68;101319.66;5165636;28;20101;-58
2023/05/20 10:11:11;;;;;;;2.65;2.00;;;21.00;83.30;;;21.48;65.98;101328.50;5168735;28;20129;-60
2023/05/20 10:14:05;;;;;;;3.80;2.28;;;21.00;83.50;;;21.36;66.31;101321.44;5176112;28;20442;-59
2023/05/20 10:16:51;;;;;;;4.00;2.15;;;20.90;83.80;;;21.27;66.90;101326.75;5172221;28;20040;-58
2023/05/20 10:19:29;;;;;;;3.28;2.22;;;20.80;84.20;;;21.18;67.00;101319.66;5169334;28;20086;-60
2023/05/20 10:22:05;;;;;;;3.35;2.10;;;20.70;84.40;;;21.08;67.25;101315.25;5172917;28;20129;-59
2023/05/20 10:24:40;;;;;;;3.42;1.92;;;20.60;84.60;;;20.95;67.82;101314.38;5169134;28;20057;-59
2023/05/20 10:27:14;;;;;;;3.70;2.30;;;20.50;85.10;;;20.85;68.15;101308.16;5171245;28;20042;-61
2023/05/20 10:29:52;;;;;;;4.35;2.60;;;20.40;85.50;;;20.74;68.66;101315.25;5171369;28;20054;-58
2023/05/20 10:32:26;;;;;;;4.03;2.33;;;20.30;86.00;;;20.69;69.49;101314.34;5171691;28;20046;-60
2023/05/20 10:35:04;;;;;;;3.88;2.25;;;20.20;86.90;;;20.65;69.65;101316.97;5171551;28;20050;-59
2023/05/20 10:37:42;;;;;;;3.25;2.28;;;20.20;87.20;;;20.62;70.35;101324.94;5163862;28;20046;-58